Time;durP1;ratioP1;P1;durP2;ratioP2;P2;SDS_P1;SDS_P2;PMS_P1;PMS_P2;Temp;Humidity;BMP_temperature;BMP_pressure;BME280_temperature;BME280_humidity;BME280_pressure;Samples;Min_cycle;Max_cycle;Signal;HPM_P1;HPM_P2
2021/01/13 00:01:09;;;;;;;14.75;2.05;;;3.20;99.90;;;;;;5049586;28;20446;-58
2021/01/13 00:03:34;;;;;;;8.85;1.90;;;3.20;99.90;;;;;;5044644;28;20021;-59
2021/01/13 00:06:00;;;;;;;13.15;1.95;;;3.20;99.90;;;;;;5050543;28;20039;-59
2021/01/13 00:08:25;;;;;;;15.32;1.73;;;3.30;99.90;;;;;;5044764;28;20292;-60
2021/01/13 00:10:51;;;;;;;8.48;1.77;;;3.40;99.90;;;;;;5051262;28;20048;-60
2021/01/13 00:13:17;;;;;;;7.30;1.60;;;3.50;99.90;;;;;;5051481;28;20451;-59
2021/01/13 00:15:42;;;;;;;21.92;1.90;;;3.30;99.90;;;;;;5059201;28;20041;-61
2021/01/13 00:18:08;;;;;;;9.55;2.13;;;3.20;99.90;;;;;;5054978;28;20071;-59
2021/01/13 00:20:33;;;;;;;9.73;1.70;;;3.20;99.90;;;;;;5066401;28;20053;-60
2021/01/13 00:22:59;;;;;;;14.68;1.83;;;3.10;99.90;;;;;;5063244;28;20119;-59
2021/01/13 00:25:25;;;;;;;18.60;1.95;;;3.10;99.90;;;;;;5047249;28;20056;-60
2021/01/13 00:27:50;;;;;;;17.85;1.85;;;3.00;99.90;;;;;;5031371;28;20114;-60
2021/01/13 00:30:17;;;;;;;10.73;1.80;;;3.10;99.90;;;;;;5044108;28;20031;-60
2021/01/13 00:32:44;;;;;;;15.57;2.20;;;3.10;99.90;;;;;;5047405;28;20090;-60
2021/01/13 00:35:10;;;;;;;17.10;2.05;;;3.10;99.90;;;;;;5049256;28;20430;-60
2021/01/13 00:37:37;;;;;;;15.82;1.77;;;3.20;99.90;;;;;;5050162;28;20029;-60
2021/01/13 00:40:05;;;;;;;15.68;2.40;;;3.20;99.90;;;;;;5050504;28;20154;-60
2021/01/13 00:42:30;;;;;;;17.52;2.30;;;3.20;99.90;;;;;;5049094;28;20021;-60
2021/01/13 00:44:56;;;;;;;13.60;1.67;;;3.20;99.90;;;;;;5049191;28;20340;-60
2021/01/13 00:47:21;;;;;;;6.95;1.58;;;3.10;99.90;;;;;;5049888;28;20052;-60
2021/01/13 00:49:47;;;;;;;7.00;1.30;;;3.00;99.90;;;;;;5049373;28;20036;-60
2021/01/13 00:52:12;;;;;;;15.77;1.67;;;3.00;99.90;;;;;;5051619;28;20124;-59
2021/01/13 00:54:38;;;;;;;11.20;2.05;;;3.00;99.90;;;;;;5050077;28;20037;-59
2021/01/13 00:57:05;;;;;;;16.00;1.77;;;2.90;99.90;;;;;;5050727;28;20040;-60
2021/01/13 00:59:31;;;;;;;10.15;1.60;;;2.80;99.90;;;;;;5045728;28;20442;-59
2021/01/13 01:01:56;;;;;;;15.60;1.80;;;2.80;99.90;;;;;;5049086;28;20029;-61
2021/01/13 01:04:22;;;;;;;10.88;1.88;;;2.80;99.90;;;;;;5049629;28;20029;-60
2021/01/13 01:06:49;;;;;;;15.93;2.53;;;2.80;99.90;;;;;;5037830;28;20495;-60
2021/01/13 01:09:16;;;;;;;8.73;1.60;;;2.80;99.90;;;;;;5049969;28;20021;-60
2021/01/13 01:11:42;;;;;;;12.40;1.42;;;2.80;99.90;;;;;;5049147;28;20175;-60
2021/01/13 01:14:10;;;;;;;11.32;1.67;;;2.70;99.90;;;;;;5048707;28;20041;-60
2021/01/13 01:16:37;;;;;;;10.85;1.10;;;2.70;99.90;;;;;;5047169;28;20021;-58
2021/01/13 01:19:08;;;;;;;8.65;1.50;;;2.70;99.90;;;;;;5049442;28;20020;-59
2021/01/13 01:21:38;;;;;;;13.20;1.65;;;2.70;99.90;;;;;;5049444;28;20110;-61
2021/01/13 01:24:04;;;;;;;13.18;2.28;;;2.70;99.90;;;;;;5047545;28;20025;-60
2021/01/13 01:26:29;;;;;;;4.78;1.20;;;2.70;99.90;;;;;;5049609;28;20033;-60
2021/01/13 01:28:55;;;;;;;8.88;1.42;;;2.80;99.90;;;;;;5048356;28;20021;-60
2021/01/13 01:31:20;;;;;;;20.02;1.95;;;2.80;99.90;;;;;;5052490;28;20100;-60
2021/01/13 01:33:46;;;;;;;12.32;1.30;;;2.80;99.90;;;;;;5053060;28;20131;-60
2021/01/13 01:36:17;;;;;;;11.65;1.40;;;2.90;99.90;;;;;;5056791;28;20068;-60
2021/01/13 01:38:43;;;;;;;12.27;1.13;;;2.90;99.90;;;;;;5068754;28;20399;-60
2021/01/13 01:41:10;;;;;;;19.98;2.30;;;3.00;99.90;;;;;;5031377;28;20025;-60
2021/01/13 01:43:36;;;;;;;7.97;1.48;;;3.00;99.90;;;;;;5051437;28;20025;-60
2021/01/13 01:46:02;;;;;;;8.70;1.30;;;3.00;99.90;;;;;;5051456;28;20029;-60
2021/01/13 01:48:30;;;;;;;11.63;1.77;;;3.10;99.90;;;;;;5053525;28;20032;-59
2021/01/13 01:51:00;;;;;;;19.27;2.25;;;3.10;99.90;;;;;;5050772;28;20215;-60
2021/01/13 01:53:47;;;;;;;12.05;1.77;;;3.10;99.90;;;;;;5022113;28;20080;-59
2021/01/13 01:56:28;;;;;;;3.92;1.25;;;3.10;99.90;;;;;;5041305;28;20071;-60
2021/01/13 01:59:01;;;;;;;6.97;0.98;;;3.10;99.90;;;;;;5052693;28;20032;-60
2021/01/13 02:01:32;;;;;;;18.15;1.67;;;3.20;99.90;;;;;;5055571;28;20071;-60
2021/01/13 02:04:22;;;;;;;10.15;1.20;;;3.20;99.90;;;;;;5055260;28;20090;-60
2021/01/13 02:07:09;;;;;;;19.52;1.77;;;3.20;99.90;;;;;;5057220;28;20256;-60
2021/01/13 02:09:38;;;;;;;11.77;1.58;;;3.10;99.90;;;;;;5052771;28;20506;-59
2021/01/13 02:12:12;;;;;;;12.38;1.67;;;3.10;99.90;;;;;;5055903;28;20049;-59
2021/01/13 02:14:41;;;;;;;7.25;1.38;;;3.10;99.90;;;;;;5049487;28;20504;-59
2021/01/13 02:17:08;;;;;;;11.85;1.50;;;3.10;99.90;;;;;;5053572;28;20112;-59
2021/01/13 02:19:48;;;;;;;18.13;1.98;;;3.20;99.90;;;;;;5048906;28;20040;-60
2021/01/13 02:22:19;;;;;;;10.70;2.03;;;3.20;99.90;;;;;;5049624;28;20033;-60
2021/01/13 02:25:00;;;;;;;11.60;1.45;;;3.30;99.90;;;;;;5048229;28;20041;-59
2021/01/13 02:28:02;;;;;;;17.35;2.65;;;3.30;99.90;;;;;;5046199;28;20051;-60
2021/01/13 02:31:12;;;;;;;16.00;1.50;;;3.30;99.90;;;;;;5051477;28;20056;-60
2021/01/13 02:33:48;;;;;;;14.68;1.90;;;3.20;99.90;;;;;;5032962;28;20065;-59
2021/01/13 02:36:49;;;;;;;15.20;1.70;;;3.10;99.90;;;;;;5051425;28;20032;-60
2021/01/13 02:39:18;;;;;;;13.43;2.03;;;3.10;99.90;;;;;;5051283;28;20450;-59
2021/01/13 02:41:45;;;;;;;12.05;2.45;;;3.00;99.90;;;;;;5051353;28;20037;-60
2021/01/13 02:44:12;;;;;;;12.23;1.77;;;3.00;99.90;;;;;;5048600;28;20799;-59
2021/01/13 02:46:55;;;;;;;10.95;1.67;;;3.00;99.90;;;;;;5052266;28;20100;-59
2021/01/13 02:49:29;;;;;;;6.50;1.15;;;3.00;99.90;;;;;;5050168;28;20055;-59
2021/01/13 02:51:57;;;;;;;8.38;1.35;;;3.00;99.90;;;;;;5051545;28;20119;-60
2021/01/13 02:54:34;;;;;;;11.50;1.38;;;2.90;99.90;;;;;;5054413;28;20017;-60
2021/01/13 02:57:28;;;;;;;5.68;1.25;;;3.00;99.90;;;;;;5050759;28;20036;-60
2021/01/13 02:59:57;;;;;;;14.73;2.15;;;3.10;99.90;;;;;;5032695;28;20104;-60
2021/01/13 03:02:37;;;;;;;9.57;1.33;;;3.20;99.90;;;;;;5050484;28;20491;-60
2021/01/13 03:05:04;;;;;;;20.00;2.05;;;3.20;99.90;;;;;;5042625;28;20029;-60
2021/01/13 03:07:35;;;;;;;15.23;1.63;;;3.30;99.90;;;;;;5049981;28;20387;-60
2021/01/13 03:10:10;;;;;;;14.95;1.55;;;3.30;99.90;;;;;;5047631;28;20036;-59
2021/01/13 03:12:40;;;;;;;17.98;1.95;;;3.30;99.90;;;;;;5051722;28;20047;-60
2021/01/13 03:15:07;;;;;;;15.95;1.85;;;3.30;99.90;;;;;;5050076;28;20079;-61
2021/01/13 03:17:35;;;;;;;9.55;1.83;;;3.30;99.90;;;;;;5034904;28;20029;-60
2021/01/13 03:20:19;;;;;;;18.65;2.03;;;3.40;99.90;;;;;;5051764;28;20029;-60
2021/01/13 03:23:25;;;;;;;12.85;2.10;;;3.40;99.90;;;;;;5041032;28;20435;-60
2021/01/13 03:25:53;;;;;;;16.35;1.48;;;3.40;99.90;;;;;;5048430;28;20044;-60
2021/01/13 03:28:23;;;;;;;13.93;1.42;;;3.30;99.90;;;;;;5047549;28;20055;-59
2021/01/13 03:30:50;;;;;;;11.05;1.38;;;3.20;99.90;;;;;;5049648;28;20024;-59
2021/01/13 03:33:25;;;;;;;16.27;2.10;;;3.20;99.90;;;;;;5043880;28;20041;-60
2021/01/13 03:36:08;;;;;;;22.73;3.20;;;3.20;99.90;;;;;;5050590;28;20567;-60
2021/01/13 03:38:42;;;;;;;16.27;2.00;;;3.20;99.90;;;;;;5041983;28;20044;-60
2021/01/13 03:41:08;;;;;;;13.77;1.70;;;3.20;99.90;;;;;;5047169;28;20039;-59
2021/01/13 03:43:36;;;;;;;14.98;2.28;;;3.30;99.90;;;;;;5031246;28;20029;-60
2021/01/13 03:46:05;;;;;;;18.27;2.40;;;3.20;99.90;;;;;;5034907;28;20383;-60
2021/01/13 03:48:48;;;;;;;10.07;2.08;;;3.20;99.90;;;;;;5044597;28;20025;-59
2021/01/13 03:51:38;;;;;;;11.45;1.35;;;3.20;99.90;;;;;;5048718;28;20494;-60
2021/01/13 03:54:05;;;;;;;16.55;1.73;;;3.20;99.90;;;;;;5048818;28;20036;-59
2021/01/13 03:56:45;;;;;;;13.20;1.38;;;3.20;99.90;;;;;;5036526;28;20017;-59
2021/01/13 03:59:19;;;;;;;9.95;1.83;;;3.20;99.90;;;;;;5049565;28;20036;-60
2021/01/13 04:01:52;;;;;;;14.45;2.05;;;3.20;99.90;;;;;;5050241;28;20560;-59
2021/01/13 04:04:42;;;;;;;16.52;1.67;;;3.20;99.90;;;;;;5048282;28;20419;-59
2021/01/13 04:07:10;;;;;;;11.70;1.52;;;3.30;99.90;;;;;;5031934;28;20025;-59
2021/01/13 04:09:36;;;;;;;12.82;1.48;;;3.30;99.90;;;;;;5051635;28;20021;-62
2021/01/13 04:12:13;;;;;;;16.20;1.88;;;3.40;99.90;;;;;;5044784;28;20057;-60
2021/01/13 04:14:51;;;;;;;15.65;1.85;;;3.40;99.90;;;;;;5052689;28;20029;-60
2021/01/13 04:17:18;;;;;;;11.40;1.67;;;3.50;99.90;;;;;;5052283;28;20155;-60
2021/01/13 04:19:45;;;;;;;7.72;1.50;;;3.50;99.90;;;;;;5050016;28;20483;-60
2021/01/13 04:22:15;;;;;;;16.10;2.13;;;3.50;99.90;;;;;;5049838;28;20096;-60
2021/01/13 04:24:46;;;;;;;9.38;1.00;;;3.50;99.90;;;;;;5050756;28;20367;-60
2021/01/13 04:27:14;;;;;;;12.30;1.55;;;3.60;99.90;;;;;;5047871;28;20075;-61
2021/01/13 04:29:40;;;;;;;6.95;1.10;;;3.50;99.90;;;;;;5046354;28;20108;-59
2021/01/13 04:32:07;;;;;;;11.70;1.80;;;3.60;99.90;;;;;;5049317;28;20131;-60
2021/01/13 04:34:33;;;;;;;14.02;1.55;;;3.60;99.90;;;;;;5049539;28;20052;-59
2021/01/13 04:37:02;;;;;;;13.95;1.73;;;3.60;99.90;;;;;;5048430;28;20060;-61
2021/01/13 04:39:29;;;;;;;12.70;1.58;;;3.60;99.90;;;;;;5045414;28;20445;-60
2021/01/13 04:42:20;;;;;;;11.70;1.40;;;3.60;99.90;;;;;;5043641;28;20033;-59
2021/01/13 04:45:04;;;;;;;15.80;1.58;;;3.70;99.90;;;;;;5046451;28;20042;-61
2021/01/13 04:47:46;;;;;;;7.85;0.80;;;3.70;99.90;;;;;;5044693;28;20033;-60
2021/01/13 04:50:12;;;;;;;11.25;1.30;;;3.80;99.90;;;;;;5041018;28;20037;-60
2021/01/13 04:52:42;;;;;;;8.73;1.48;;;3.70;99.90;;;;;;5040211;28;20036;-59
2021/01/13 04:55:23;;;;;;;10.65;1.88;;;3.60;99.90;;;;;;5048249;28;20025;-60
2021/01/13 04:58:10;;;;;;;8.00;1.08;;;3.70;99.90;;;;;;5045835;28;20143;-60
2021/01/13 05:01:04;;;;;;;11.40;1.38;;;3.70;99.90;;;;;;5044995;28;20116;-60
2021/01/13 05:03:39;;;;;;;11.38;1.63;;;3.70;99.90;;;;;;5044495;28;20044;-60
2021/01/13 05:06:19;;;;;;;13.95;2.28;;;3.60;99.90;;;;;;5051673;28;20025;-61
2021/01/13 05:09:04;;;;;;;10.13;1.42;;;3.70;99.90;;;;;;5042671;28;20025;-60
2021/01/13 05:11:45;;;;;;;9.70;1.95;;;3.70;99.90;;;;;;5053896;28;20055;-60
2021/01/13 05:14:12;;;;;;;7.15;1.50;;;3.60;99.90;;;;;;5053827;28;20540;-60
2021/01/13 05:16:49;;;;;;;10.73;1.35;;;3.60;99.90;;;;;;5058609;28;20098;-60
2021/01/13 05:19:32;;;;;;;11.40;1.55;;;3.60;99.90;;;;;;5063487;28;20416;-60
2021/01/13 05:22:00;;;;;;;11.00;2.10;;;3.50;99.90;;;;;;5055770;28;20036;-60
2021/01/13 05:24:27;;;;;;;11.48;1.67;;;3.50;99.90;;;;;;5069290;28;20175;-60
2021/01/13 05:27:03;;;;;;;12.75;1.75;;;3.40;99.90;;;;;;5053454;28;20102;-60
2021/01/13 05:29:37;;;;;;;7.47;1.38;;;3.40;99.90;;;;;;5053109;28;20064;-60
2021/01/13 05:32:06;;;;;;;17.67;1.35;;;3.40;99.90;;;;;;5017579;28;20021;-60
2021/01/13 05:34:33;;;;;;;15.57;2.05;;;3.40;99.90;;;;;;5053847;28;20040;-59
2021/01/13 05:37:19;;;;;;;7.63;1.77;;;3.30;99.90;;;;;;5050187;28;20032;-59
2021/01/13 05:39:47;;;;;;;17.13;1.67;;;3.30;99.90;;;;;;5049306;28;20029;-60
2021/01/13 05:42:15;;;;;;;12.00;1.60;;;3.40;99.90;;;;;;5045915;28;20360;-60
2021/01/13 05:44:42;;;;;;;14.73;2.33;;;3.40;99.90;;;;;;5051628;28;20037;-60
2021/01/13 05:47:33;;;;;;;10.35;1.25;;;3.40;99.90;;;;;;5045808;28;20029;-60
2021/01/13 05:49:59;;;;;;;10.23;1.55;;;3.50;99.90;;;;;;5045359;28;20104;-59
2021/01/13 05:52:32;;;;;;;10.07;1.30;;;3.50;99.90;;;;;;5050569;28;20056;-59
2021/01/13 05:54:57;;;;;;;;;;;3.50;99.90;;;;;;5048376;28;20705;-60
2021/01/13 05:57:24;;;;;;;10.43;1.27;;;3.50;99.90;;;;;;5051266;28;19911;-60
2021/01/13 05:59:52;;;;;;;10.23;1.45;;;3.60;99.90;;;;;;5043009;28;20428;-60
2021/01/13 06:02:20;;;;;;;23.63;2.00;;;3.50;99.90;;;;;;5047766;28;20031;-59
2021/01/13 06:04:49;;;;;;;16.75;1.95;;;3.60;99.90;;;;;;5044946;28;20034;-59
2021/01/13 06:07:19;;;;;;;17.17;1.65;;;3.50;99.90;;;;;;5043768;28;20199;-61
2021/01/13 06:09:45;;;;;;;11.52;1.33;;;3.50;99.90;;;;;;5045057;28;20040;-59
2021/01/13 06:12:18;;;;;;;13.10;1.70;;;3.50;99.90;;;;;;5036095;28;20136;-58
2021/01/13 06:14:47;;;;;;;9.15;1.50;;;3.60;99.90;;;;;;5047960;28;20059;-60
2021/01/13 06:17:23;;;;;;;10.63;1.75;;;3.60;99.90;;;;;;5049441;28;20040;-59
2021/01/13 06:19:50;;;;;;;15.50;1.77;;;3.60;99.90;;;;;;5038093;28;20034;-59
2021/01/13 06:22:17;;;;;;;10.57;1.35;;;3.70;99.90;;;;;;5041986;28;20029;-60
2021/01/13 06:24:43;;;;;;;9.38;1.42;;;3.70;99.90;;;;;;5045627;28;20075;-59
2021/01/13 06:27:23;;;;;;;7.65;1.38;;;3.60;99.90;;;;;;5045790;28;20040;-60
2021/01/13 06:30:18;;;;;;;9.68;1.88;;;3.70;99.90;;;;;;5035505;28;20018;-59
2021/01/13 06:33:19;;;;;;;5.55;1.45;;;3.80;99.90;;;;;;5037088;28;20021;-59
2021/01/13 06:35:56;;;;;;;11.68;1.50;;;3.90;99.90;;;;;;5044804;28;20036;-59
2021/01/13 06:38:25;;;;;;;8.95;1.92;;;3.80;99.90;;;;;;5037727;28;20104;-59
2021/01/13 06:40:58;;;;;;;12.23;1.55;;;3.80;99.90;;;;;;5040467;28;20025;-59
2021/01/13 06:43:24;;;;;;;8.52;1.40;;;3.70;99.90;;;;;;5035875;28;20021;-58
2021/01/13 06:45:50;;;;;;;17.50;1.95;;;3.70;99.90;;;;;;5045941;28;20129;-59
2021/01/13 06:48:25;;;;;;;18.50;2.35;;;3.70;99.90;;;;;;5043712;28;20112;-59
2021/01/13 06:51:00;;;;;;;6.72;1.23;;;3.70;99.90;;;;;;5054742;28;20059;-58
2021/01/13 06:53:34;;;;;;;8.77;1.45;;;3.70;99.90;;;;;;5056716;28;20128;-59
2021/01/13 06:56:10;;;;;;;8.35;1.25;;;3.70;99.90;;;;;;5051692;28;20108;-59
2021/01/13 06:58:37;;;;;;;8.98;1.27;;;3.80;99.90;;;;;;5052158;28;20074;-58
2021/01/13 07:01:04;;;;;;;7.95;1.50;;;3.80;99.90;;;;;;5048501;28;20037;-60
2021/01/13 07:03:31;;;;;;;9.40;1.48;;;3.80;99.90;;;;;;5049482;28;20033;-59
2021/01/13 07:05:59;;;;;;;9.27;1.48;;;3.80;99.90;;;;;;5052909;28;20084;-59
2021/01/13 07:08:25;;;;;;;11.55;1.65;;;3.90;99.90;;;;;;5052228;28;20088;-61
2021/01/13 07:11:04;;;;;;;4.03;1.17;;;3.80;99.90;;;;;;5052002;28;20079;-59
2021/01/13 07:13:33;;;;;;;14.82;2.08;;;3.80;99.90;;;;;;5052093;28;20029;-59
2021/01/13 07:16:02;;;;;;;14.48;1.77;;;3.70;99.90;;;;;;5034958;28;20025;-59
2021/01/13 07:18:28;;;;;;;13.52;1.60;;;3.70;99.90;;;;;;5033225;28;20026;-59
2021/01/13 07:20:54;;;;;;;11.75;1.70;;;3.70;99.90;;;;;;5035327;28;20036;-60
2021/01/13 07:23:21;;;;;;;8.38;1.55;;;3.70;99.90;;;;;;5033060;28;20079;-59
2021/01/13 07:25:48;;;;;;;16.85;2.40;;;3.70;99.90;;;;;;5036866;28;20394;-59
2021/01/13 07:28:15;;;;;;;11.73;1.92;;;3.70;99.90;;;;;;5055563;28;20131;-59
2021/01/13 07:30:42;;;;;;;21.65;2.03;;;3.60;99.90;;;;;;5061006;28;20067;-61
2021/01/13 07:33:12;;;;;;;12.52;1.98;;;3.60;99.90;;;;;;5052569;28;20021;-58
2021/01/13 07:35:46;;;;;;;7.80;1.38;;;3.50;99.90;;;;;;5053178;28;20021;-60
2021/01/13 07:38:19;;;;;;;8.23;1.95;;;3.50;99.90;;;;;;5052362;28;20271;-59
2021/01/13 07:41:03;;;;;;;13.32;2.00;;;3.50;99.90;;;;;;5052451;28;20106;-59
2021/01/13 07:44:02;;;;;;;17.52;2.17;;;3.50;99.90;;;;;;5050917;28;20455;-58
2021/01/13 07:46:30;;;;;;;9.05;1.75;;;3.50;99.90;;;;;;5045639;28;20045;-61
2021/01/13 07:49:13;;;;;;;15.82;1.58;;;3.50;99.90;;;;;;5052033;28;20014;-58
2021/01/13 07:51:58;;;;;;;13.80;1.90;;;3.50;99.90;;;;;;5052564;28;20495;-58
2021/01/13 07:54:32;;;;;;;10.55;1.60;;;3.50;99.90;;;;;;5040739;28;20341;-60
2021/01/13 07:56:59;;;;;;;9.73;1.70;;;3.50;99.90;;;;;;5050961;28;20029;-60
2021/01/13 07:59:34;;;;;;;13.38;1.95;;;3.50;99.90;;;;;;5038109;28;20025;-59
2021/01/13 08:02:17;;;;;;;16.30;1.55;;;3.50;99.90;;;;;;5050894;28;20021;-61
2021/01/13 08:04:57;;;;;;;8.50;1.30;;;3.50;99.90;;;;;;5051529;28;20029;-61
2021/01/13 08:07:40;;;;;;;8.77;1.17;;;3.50;99.90;;;;;;5050142;28;20070;-59
2021/01/13 08:10:07;;;;;;;9.73;1.50;;;3.60;99.90;;;;;;5039744;28;20156;-57
2021/01/13 08:13:19;;;;;;;5.78;1.23;;;3.60;99.90;;;;;;5052583;28;20021;-59
2021/01/13 08:16:06;;;;;;;7.70;1.20;;;3.70;99.90;;;;;;5047950;28;20055;-59
2021/01/13 08:19:10;;;;;;;19.60;1.63;;;3.60;99.90;;;;;;5051476;28;20025;-59
2021/01/13 08:21:43;;;;;;;15.18;2.55;;;3.70;99.90;;;;;;5051826;28;20036;-59
2021/01/13 08:24:31;;;;;;;9.70;1.20;;;3.60;99.90;;;;;;5050097;28;20426;-58
2021/01/13 08:27:01;;;;;;;16.92;1.65;;;3.50;99.90;;;;;;5047811;28;20025;-59
2021/01/13 08:29:34;;;;;;;13.32;1.88;;;3.60;99.90;;;;;;5049123;28;20371;-61
2021/01/13 08:32:19;;;;;;;10.70;1.80;;;3.50;99.90;;;;;;5046236;28;20510;-58
2021/01/13 08:34:49;;;;;;;6.10;1.35;;;3.60;99.90;;;;;;5048645;28;20162;-58
2021/01/13 08:37:15;;;;;;;7.93;1.67;;;3.60;99.90;;;;;;5021772;28;20025;-60
2021/01/13 08:39:42;;;;;;;13.73;1.80;;;3.60;99.90;;;;;;5053879;28;20033;-58
2021/01/13 08:42:25;;;;;;;13.85;1.98;;;3.70;99.90;;;;;;5055456;28;20029;-60
2021/01/13 08:44:54;;;;;;;13.38;1.40;;;3.70;99.90;;;;;;5054436;28;20020;-60
2021/01/13 08:47:24;;;;;;;9.38;1.95;;;3.80;99.90;;;;;;5036830;28;20010;-61
2021/01/13 08:49:51;;;;;;;9.80;1.52;;;3.80;99.90;;;;;;5038261;28;20379;-60
2021/01/13 08:52:22;;;;;;;9.32;1.65;;;3.80;99.90;;;;;;5053789;28;20104;-60
2021/01/13 08:54:56;;;;;;;6.68;1.40;;;3.80;99.90;;;;;;5037298;28;20609;-61
2021/01/13 08:57:26;;;;;;;10.68;2.15;;;3.90;99.90;;;;;;5054392;28;20028;-60
2021/01/13 08:59:53;;;;;;;17.95;2.53;;;3.80;99.90;;;;;;5063935;28;20386;-61
2021/01/13 09:02:20;;;;;;;9.73;2.22;;;3.80;99.90;;;;;;5056984;28;20017;-59
2021/01/13 09:04:56;;;;;;;7.57;1.70;;;3.80;99.90;;;;;;5036973;28;20554;-60
2021/01/13 09:07:26;;;;;;;8.18;1.70;;;3.80;99.90;;;;;;5036400;28;20028;-59
2021/01/13 09:09:58;;;;;;;13.85;1.63;;;3.70;99.90;;;;;;5055058;28;20552;-62
2021/01/13 09:12:30;;;;;;;8.10;1.63;;;3.80;99.90;;;;;;5054420;28;20083;-59
2021/01/13 09:15:08;;;;;;;11.68;1.70;;;3.90;99.90;;;;;;5053681;28;20116;-60
2021/01/13 09:17:38;;;;;;;8.20;1.40;;;3.90;99.90;;;;;;5053375;28;20036;-62
2021/01/13 09:20:07;;;;;;;5.18;1.52;;;3.90;99.90;;;;;;5053709;28;20028;-59
2021/01/13 09:22:50;;;;;;;9.27;1.42;;;4.00;99.90;;;;;;5054176;28;20033;-63
2021/01/13 09:25:20;;;;;;;7.35;1.38;;;4.00;99.90;;;;;;5054590;28;20017;-60
2021/01/13 09:27:48;;;;;;;5.60;1.27;;;4.10;99.90;;;;;;5051803;28;20144;-58
2021/01/13 09:30:35;;;;;;;4.57;0.90;;;4.20;99.90;;;;;;5054266;28;20089;-59
2021/01/13 09:33:07;;;;;;;14.20;1.50;;;4.20;99.90;;;;;;5054089;28;20021;-60
2021/01/13 09:35:35;;;;;;;7.30;1.50;;;4.20;99.90;;;;;;5055511;28;20387;-60
2021/01/13 09:38:05;;;;;;;11.07;2.80;;;4.30;99.90;;;;;;5054672;28;20394;-60
2021/01/13 09:40:51;;;;;;;13.80;1.85;;;4.30;99.90;;;;;;5054353;28;20447;-59
2021/01/13 09:43:25;;;;;;;8.35;2.00;;;4.40;99.90;;;;;;5053634;28;20099;-58
2021/01/13 09:45:53;;;;;;;19.83;2.92;;;4.40;99.90;;;;;;5048918;28;20033;-59
2021/01/13 09:48:19;;;;;;;13.38;1.80;;;4.40;99.90;;;;;;5048448;28;20078;-60
2021/01/13 09:50:46;;;;;;;8.30;2.35;;;4.30;99.90;;;;;;5051803;28;20095;-60
2021/01/13 09:53:14;;;;;;;12.77;1.88;;;4.40;99.90;;;;;;5053492;28;20497;-59
2021/01/13 09:55:40;;;;;;;18.33;2.33;;;4.40;99.90;;;;;;5052486;28;20025;-59
2021/01/13 09:58:16;;;;;;;13.40;2.83;;;4.40;99.90;;;;;;5053150;28;20150;-59
2021/01/13 10:00:42;;;;;;;12.85;2.60;;;4.40;99.90;;;;;;5052169;28;20025;-58
2021/01/13 10:03:10;;;;;;;10.05;2.42;;;4.40;99.90;;;;;;5053765;28;20029;-60
2021/01/13 10:05:36;;;;;;;13.93;2.67;;;4.40;99.90;;;;;;5052833;28;20382;-59
2021/01/13 10:08:02;;;;;;;17.45;2.38;;;4.50;99.90;;;;;;5053576;28;20021;-58
2021/01/13 10:10:28;;;;;;;14.20;2.40;;;4.50;99.90;;;;;;5052263;28;20529;-59
2021/01/13 10:12:56;;;;;;;20.85;3.95;;;4.50;99.90;;;;;;5055003;28;20052;-59
2021/01/13 10:15:22;;;;;;;11.38;2.33;;;4.50;99.90;;;;;;5059839;28;20025;-59
2021/01/13 10:17:47;;;;;;;9.73;2.78;;;4.50;99.90;;;;;;5071726;28;20085;-61
2021/01/13 10:20:22;;;;;;;14.63;3.17;;;4.50;99.90;;;;;;5065556;28;20082;-60
2021/01/13 10:22:48;;;;;;;16.13;3.15;;;4.60;99.90;;;;;;5067119;28;20044;-60
2021/01/13 10:25:35;;;;;;;14.55;3.05;;;4.60;99.90;;;;;;5054256;28;20103;-59
2021/01/13 10:28:01;;;;;;;19.35;4.43;;;4.70;99.90;;;;;;5053816;28;20025;-59
2021/01/13 10:30:27;;;;;;;14.18;2.97;;;4.80;99.90;;;;;;5052542;28;20068;-59
2021/01/13 10:32:57;;;;;;;13.43;4.28;;;5.00;99.90;;;;;;5045711;28;20035;-59
2021/01/13 10:35:36;;;;;;;13.80;2.63;;;5.10;99.90;;;;;;5038999;28;20052;-60
2021/01/13 10:38:02;;;;;;;11.70;2.78;;;5.10;99.90;;;;;;5052526;28;20036;-59
2021/01/13 10:40:28;;;;;;;14.23;2.70;;;5.20;99.90;;;;;;5052008;28;20028;-59
2021/01/13 10:42:55;;;;;;;14.20;3.13;;;5.20;99.90;;;;;;5053627;28;20033;-59
2021/01/13 10:45:22;;;;;;;13.43;3.63;;;5.20;99.90;;;;;;5045301;28;20018;-59
2021/01/13 10:47:56;;;;;;;17.55;3.45;;;5.20;99.90;;;;;;5055840;28;20022;-60
2021/01/13 10:50:24;;;;;;;16.83;2.80;;;5.20;99.90;;;;;;5045958;28;20744;-60
2021/01/13 10:52:55;;;;;;;12.55;2.58;;;5.20;99.90;;;;;;5042993;28;20029;-59
2021/01/13 10:55:22;;;;;;;9.68;2.20;;;5.30;99.90;;;;;;5042560;28;20044;-59
2021/01/13 10:57:51;;;;;;;12.95;2.28;;;5.30;99.90;;;;;;5043090;28;20108;-58
2021/01/13 11:00:18;;;;;;;28.52;3.60;;;5.30;99.90;;;;;;5051700;28;20029;-59
2021/01/13 11:02:52;;;;;;;15.63;2.75;;;5.40;99.90;;;;;;5051644;28;20449;-58
2021/01/13 11:05:18;;;;;;;15.68;2.63;;;5.50;99.90;;;;;;5043785;28;20052;-59
2021/01/13 11:07:44;;;;;;;14.15;2.67;;;5.50;99.90;;;;;;5041727;28;20140;-60
2021/01/13 11:10:11;;;;;;;11.50;2.40;;;5.50;99.90;;;;;;5037242;28;20067;-59
2021/01/13 11:12:37;;;;;;;12.15;2.15;;;5.50;99.90;;;;;;5048863;28;20033;-59
2021/01/13 11:15:08;;;;;;;23.25;2.83;;;5.60;99.90;;;;;;5040946;28;20045;-59
2021/01/13 11:17:33;;;;;;;6.88;1.35;;;5.60;99.90;;;;;;5047928;28;20025;-60
2021/01/13 11:20:01;;;;;;;7.03;2.33;;;5.70;99.90;;;;;;5050417;28;20025;-58
2021/01/13 11:22:48;;;;;;;13.05;2.40;;;5.70;99.90;;;;;;5045390;28;20069;-58
2021/01/13 11:25:33;;;;;;;13.68;2.20;;;5.80;99.90;;;;;;5051164;28;20025;-58
2021/01/13 11:28:07;;;;;;;20.90;2.25;;;5.80;99.90;;;;;;5033938;28;20021;-59
2021/01/13 11:30:37;;;;;;;16.60;2.47;;;5.90;99.90;;;;;;5042572;28;20021;-61
2021/01/13 11:33:04;;;;;;;15.20;2.28;;;5.90;99.90;;;;;;5044307;28;20078;-60
2021/01/13 11:35:50;;;;;;;13.52;2.10;;;6.10;99.90;;;;;;5044522;28;20429;-59
2021/01/13 11:38:36;;;;;;;11.18;1.95;;;6.40;99.90;;;;;;5045242;28;20025;-61
2021/01/13 11:41:33;;;;;;;12.43;1.98;;;6.70;99.90;;;;;;5037778;28;20148;-60
2021/01/13 11:44:19;;;;;;;9.73;1.73;;;6.90;99.90;;;;;;5038660;28;20036;-59
2021/01/13 11:46:50;;;;;;;14.32;1.73;;;7.10;99.90;;;;;;5049696;28;20190;-59
2021/01/13 11:49:26;;;;;;;10.93;2.08;;;7.10;99.90;;;;;;5049980;28;20017;-58
2021/01/13 11:51:53;;;;;;;14.60;1.83;;;7.20;99.90;;;;;;5044027;28;20021;-59
2021/01/13 11:54:31;;;;;;;14.07;2.38;;;7.00;99.90;;;;;;5050819;28;20021;-59
2021/01/13 11:57:18;;;;;;;9.80;1.98;;;7.00;99.90;;;;;;5043708;28;20391;-60
2021/01/13 11:59:44;;;;;;;20.42;1.90;;;7.20;99.90;;;;;;5052056;28;20104;-60
2021/01/13 12:02:21;;;;;;;13.43;1.80;;;7.20;99.90;;;;;;5050364;28;20052;-60
2021/01/13 12:04:47;;;;;;;11.93;1.58;;;7.40;99.90;;;;;;5033272;28;20021;-59
2021/01/13 12:07:13;;;;;;;10.30;2.03;;;7.40;99.90;;;;;;5014635;28;20025;-60
2021/01/13 12:09:39;;;;;;;9.45;1.85;;;7.30;99.90;;;;;;5050827;28;20048;-60
2021/01/13 12:12:06;;;;;;;8.65;1.40;;;7.30;99.90;;;;;;5061957;22;20046;-65
2021/01/13 12:14:42;;;;;;;7.53;1.83;;;7.30;99.90;;;;;;5031746;28;20068;-65
2021/01/13 12:17:09;;;;;;;11.88;2.10;;;7.50;99.90;;;;;;5032068;28;20057;-65
2021/01/13 12:19:41;;;;;;;9.98;2.00;;;7.60;99.90;;;;;;5041610;28;20024;-63
2021/01/13 12:22:07;;;;;;;9.38;1.63;;;7.60;99.90;;;;;;5030529;28;20022;-64
2021/01/13 12:24:43;;;;;;;14.73;2.47;;;7.60;99.90;;;;;;5039343;28;20491;-64
2021/01/13 12:27:25;;;;;;;7.20;1.65;;;7.80;99.90;;;;;;5030811;28;20379;-64
2021/01/13 12:30:13;;;;;;;9.60;1.77;;;7.80;99.90;;;;;;5029750;28;20128;-65
2021/01/13 12:32:40;;;;;;;8.57;1.92;;;7.50;99.90;;;;;;5027142;28;20034;-65
2021/01/13 12:35:08;;;;;;;10.38;1.90;;;7.70;99.90;;;;;;5046100;28;20028;-64
2021/01/13 12:37:50;;;;;;;12.13;2.00;;;8.10;99.90;;;;;;5032198;28;20022;-64
2021/01/13 12:40:30;;;;;;;8.07;1.80;;;7.70;99.90;;;;;;5032670;28;20113;-62
2021/01/13 12:42:56;;;;;;;9.70;1.67;;;7.00;99.90;;;;;;5030968;28;20044;-63
2021/01/13 12:45:22;;;;;;;5.88;1.00;;;6.80;99.90;;;;;;5030518;28;20022;-65
2021/01/13 12:47:55;;;;;;;8.40;1.50;;;6.70;99.90;;;;;;5030961;28;20026;-65
2021/01/13 12:50:20;;;;;;;8.38;1.80;;;6.60;99.90;;;;;;5030750;28;20046;-65
2021/01/13 12:52:46;;;;;;;11.00;2.00;;;6.60;99.90;;;;;;5039321;28;20445;-64
2021/01/13 12:55:11;;;;;;;12.95;1.52;;;6.60;99.90;;;;;;5035011;28;20137;-66
2021/01/13 12:57:37;;;;;;;7.85;1.75;;;6.70;99.90;;;;;;5030547;28;20025;-65
2021/01/13 13:00:04;;;;;;;11.20;1.20;;;6.60;99.90;;;;;;5030065;28;20156;-64
2021/01/13 13:02:30;;;;;;;15.45;2.28;;;6.70;99.90;;;;;;5026940;28;20476;-66
2021/01/13 13:04:55;;;;;;;12.45;1.67;;;6.90;99.90;;;;;;5029881;28;20038;-65
2021/01/13 13:07:21;;;;;;;7.60;1.83;;;6.80;99.90;;;;;;5027472;28;20033;-64
2021/01/13 13:09:49;;;;;;;11.48;1.65;;;6.60;99.90;;;;;;5029647;28;20061;-63
2021/01/13 13:12:15;;;;;;;10.02;1.30;;;6.60;99.90;;;;;;5029895;28;20495;-64
2021/01/13 13:14:41;;;;;;;8.82;1.40;;;6.70;99.90;;;;;;5028773;28;20490;-65
2021/01/13 13:17:08;;;;;;;5.53;1.38;;;6.70;99.90;;;;;;5029693;28;20173;-65